Ruskin, Florida
Current Conditions -  °F | °C
As of 12:58 PM on Thursday 23 Oct 2014 (Local Time) from KMCF Reporting Station
Clear Clear  
Wind Chill: 80°   Ceiling: Unl
Heat Index: 81°   Visibility: 10mi
Dew Point: 63°   Wind: 13mph
Humidity: 56%   Direction: 70°ENE
Pressure: 29.98"   Gusts: NA
Location:  27.72°N, 82.43°W
Report Text: KMCF 231658Z AUTO 07011KT 10SM CLR 27/17 A2998 RMK AO2 SLP155 T02660171
Loading
Personal Weather Stations






























Interactive Weather Map
Tropical Storm Tracking
New forecast layout! Learn more

10-Day Weather Forecast

Advertisements
Track Severe Weather on mobile